createdAt,value
2019-01-19T00:00:38.056Z,-23.20
2019-01-19T00:03:45.599Z,-23.21
2019-01-19T00:06:51.325Z,-23.19
2019-01-19T00:09:57.064Z,-23.19
2019-01-19T00:13:02.800Z,-23.22
2019-01-19T00:21:51.204Z,-23.05
2019-01-19T00:24:56.947Z,-23.05
2019-01-19T00:34:17.040Z,-23.02
2019-01-19T00:37:24.575Z,-23.01
2019-01-19T00:43:17.316Z,-22.99
2019-01-19T00:49:17.363Z,-22.97
2019-01-19T00:52:23.105Z,-23.02
2019-01-19T00:55:28.839Z,-23.03
2019-01-19T01:01:48.056Z,-23.12
2019-01-19T01:04:55.599Z,-23.13
2019-01-19T01:08:01.333Z,-23.19
2019-01-19T01:17:08.244Z,-23.29
2019-01-19T01:20:13.979Z,-23.33
2019-01-19T01:23:19.721Z,-23.33
2019-01-19T01:26:25.446Z,-23.34
2019-01-19T01:29:31.186Z,-23.32
2019-01-19T01:32:38.733Z,-23.34
2019-01-19T01:35:44.394Z,-23.41
2019-01-19T01:38:51.939Z,-23.45
2019-01-19T01:44:53.592Z,-23.47
2019-01-19T01:47:59.333Z,-23.34
2019-01-19T01:51:05.072Z,-23.23
2019-01-19T01:54:10.796Z,-23.24
2019-01-19T01:56:36.931Z,-23.24
2019-01-19T01:59:42.671Z,-23.31
2019-01-19T02:05:49.568Z,-23.38
2019-01-19T02:08:57.121Z,-23.44
2019-01-19T02:33:10.304Z,-23.37
2019-01-19T02:36:17.847Z,-23.38
2019-01-19T02:45:24.322Z,-23.31
2019-01-19T02:48:30.056Z,-23.26
2019-01-19T02:54:36.808Z,-22.86
2019-01-19T02:57:42.545Z,-22.83
2019-01-19T03:22:07.747Z,-23.20
2019-01-19T03:28:13.892Z,-23.36
2019-01-19T03:31:19.693Z,-23.28
2019-01-19T03:37:38.697Z,-23.38
2019-01-19T03:40:46.242Z,-23.44
2019-01-19T03:43:52.001Z,-23.40
2019-01-19T03:46:57.733Z,-23.09
2019-01-19T03:50:05.302Z,-23.21
2019-01-19T03:55:53.777Z,-23.31
2019-01-19T04:05:13.217Z,-22.95
2019-01-19T04:17:21.689Z,-22.96
2019-01-19T04:20:27.435Z,-23.08
2019-01-19T04:26:16.332Z,-23.04
2019-01-19T04:31:23.008Z,-22.92
2019-01-19T04:33:49.223Z,-22.82
2019-01-19T04:41:30.844Z,-22.91
2019-01-19T04:43:56.981Z,-22.64
2019-01-19T04:46:23.092Z,-22.52
2019-01-19T04:51:26.704Z,-22.76
2019-01-19T04:53:52.835Z,-22.83
2019-01-19T04:56:19.065Z,-22.91
2019-01-19T04:58:45.192Z,-22.97
2019-01-19T05:01:11.326Z,-23.00
2019-01-19T05:03:37.543Z,-23.01
2019-01-19T05:06:11.685Z,-23.06
2019-01-19T05:08:31.796Z,-23.11
2019-01-19T05:10:57.915Z,-23.15
2019-01-19T05:13:24.025Z,-23.16
2019-01-19T05:15:50.162Z,-23.20
2019-01-19T05:26:11.668Z,-23.33
2019-01-19T05:28:37.789Z,-23.35
2019-01-19T05:31:04.018Z,-23.35
2019-01-19T05:33:30.164Z,-23.32
2019-01-19T05:35:56.290Z,-23.38
2019-01-19T05:38:22.392Z,-23.47
2019-01-19T05:40:48.525Z,-23.52
2019-01-19T05:43:14.642Z,-23.57
2019-01-19T05:45:40.777Z,-23.60
2019-01-19T05:48:06.894Z,-23.59
2019-01-19T05:50:33.022Z,-23.58
2019-01-19T05:52:59.155Z,-23.55
2019-01-19T05:55:25.272Z,-23.55
2019-01-19T05:57:51.408Z,-23.54
2019-01-19T06:00:58.943Z,-23.57
2019-01-19T06:03:25.166Z,-23.51
2019-01-19T06:08:25.532Z,-23.42
2019-01-19T06:10:51.674Z,-23.44
2019-01-19T06:13:17.913Z,-23.50
2019-01-19T06:15:44.144Z,-23.66
2019-01-19T06:18:10.354Z,-23.60
2019-01-19T06:20:36.482Z,-23.64
2019-01-19T06:23:02.699Z,-23.69
2019-01-19T06:25:28.936Z,-23.74
2019-01-19T06:27:55.050Z,-23.79
2019-01-19T06:31:02.592Z,-23.85
2019-01-19T06:33:28.724Z,-23.92
2019-01-19T06:35:54.950Z,-23.96
2019-01-19T06:38:21.063Z,-23.95
2019-01-19T06:40:47.263Z,-23.93
2019-01-19T06:43:13.440Z,-23.88
2019-01-19T06:45:39.685Z,-23.82
2019-01-19T06:50:53.503Z,-23.76
2019-01-19T06:53:19.623Z,-23.82
2019-01-19T06:55:45.755Z,-23.87
2019-01-19T06:58:11.872Z,-23.94
2019-01-19T07:00:37.986Z,-23.88
2019-01-19T07:03:04.118Z,-23.90
2019-01-19T07:05:30.237Z,-23.93
2019-01-19T07:07:56.368Z,-23.92
2019-01-19T07:11:03.914Z,-23.94
2019-01-19T07:13:30.039Z,-23.93
2019-01-19T07:15:56.257Z,-23.97
2019-01-19T07:18:22.384Z,-23.97
2019-01-19T07:20:48.513Z,-24.00
2019-01-19T07:23:14.636Z,-24.02
2019-01-19T07:25:40.856Z,-23.99
2019-01-19T07:28:06.982Z,-23.91
2019-01-19T07:30:33.198Z,-23.85
2019-01-19T07:32:59.379Z,-23.79
2019-01-19T07:35:25.498Z,-23.70
2019-01-19T07:37:51.720Z,-23.61
2019-01-19T07:40:17.947Z,-23.58
2019-01-19T07:43:25.487Z,-23.71
2019-01-19T07:45:51.707Z,-23.84
2019-01-19T07:48:17.938Z,-23.96
2019-01-19T07:50:44.057Z,-24.05
2019-01-19T07:53:10.195Z,-24.14
2019-01-19T07:55:36.309Z,-24.22
2019-01-19T07:58:02.438Z,-24.23
2019-01-19T08:00:48.423Z,-24.21
2019-01-19T08:03:14.556Z,-24.19
2019-01-19T08:05:40.671Z,-24.19
2019-01-19T08:08:06.811Z,-24.15
2019-01-19T08:10:33.027Z,-24.07
2019-01-19T08:12:59.156Z,-24.01
2019-01-19T08:16:06.678Z,-23.89
2019-01-19T08:18:32.812Z,-23.60
2019-01-19T08:20:58.930Z,-23.45
2019-01-19T08:23:26.213Z,-23.46
2019-01-19T08:25:53.379Z,-23.50
2019-01-19T08:31:13.071Z,-23.51
2019-01-19T08:33:39.314Z,-23.48
2019-01-19T08:38:53.144Z,-23.36
2019-01-19T08:41:19.257Z,-23.09
2019-01-19T08:46:23.126Z,-22.62
2019-01-19T08:48:49.242Z,-22.48
2019-01-19T08:51:15.459Z,-22.47
2019-01-19T08:53:41.615Z,-22.56
2019-01-19T08:56:07.832Z,-22.55
2019-01-19T08:58:34.047Z,-22.50
2019-01-19T09:01:00.271Z,-22.38
2019-01-19T09:03:26.393Z,-22.15
2019-01-19T09:05:52.622Z,-21.90
2019-01-19T09:08:18.838Z,-21.87
2019-01-19T09:10:45.067Z,-21.83
2019-01-19T09:13:11.196Z,-21.77
2019-01-19T09:15:37.444Z,-21.72
2019-01-19T09:18:03.566Z,-21.58
2019-01-19T09:20:29.683Z,-21.24
2019-01-19T09:25:37.352Z,-20.90
2019-01-19T09:28:03.469Z,-20.86
2019-01-19T09:30:29.600Z,-20.82
2019-01-19T09:32:55.819Z,-20.72
2019-01-19T09:35:22.055Z,-20.62
2019-01-19T09:37:48.275Z,-20.53
2019-01-19T09:40:36.051Z,-20.40
2019-01-19T09:43:02.174Z,-20.20
2019-01-19T09:45:28.303Z,-19.90
2019-01-19T09:47:54.524Z,-19.76
2019-01-19T09:51:02.070Z,-19.67
2019-01-19T09:53:28.205Z,-19.52
2019-01-19T09:55:54.346Z,-19.32
2019-01-19T09:58:20.462Z,-19.24
2019-01-19T10:00:46.599Z,-19.17
2019-01-19T10:03:13.949Z,-18.95
2019-01-19T10:05:40.850Z,-18.71
2019-01-19T10:08:07.091Z,-18.61
2019-01-19T10:10:33.330Z,-18.54
2019-01-19T10:12:59.445Z,-18.49
2019-01-19T10:15:25.562Z,-18.47
2019-01-19T10:17:51.799Z,-18.41
2019-01-19T10:20:59.331Z,-18.37
2019-01-19T10:23:25.455Z,-18.24
2019-01-19T10:25:51.689Z,-18.02
2019-01-19T10:28:17.806Z,-17.92
2019-01-19T10:30:44.022Z,-17.87
2019-01-19T10:33:10.155Z,-17.80
2019-01-19T10:35:36.388Z,-17.71
2019-01-19T10:38:02.614Z,-17.59
2019-01-19T10:40:28.727Z,-17.49
2019-01-19T10:42:54.953Z,-17.39
2019-01-19T10:48:34.484Z,-17.18
2019-01-19T10:51:00.697Z,-17.08
2019-01-19T10:53:26.832Z,-17.00
2019-01-19T10:55:53.249Z,-16.93
2019-01-19T10:58:21.202Z,-16.83
2019-01-19T11:00:47.319Z,-16.71
2019-01-19T11:03:13.447Z,-16.57
2019-01-19T11:05:39.666Z,-16.47
2019-01-19T11:10:40.177Z,-16.22
2019-01-19T11:13:06.427Z,-16.07
2019-01-19T11:15:32.541Z,-15.96
2019-01-19T11:17:58.685Z,-15.89
2019-01-19T11:23:39.929Z,-15.71
2019-01-19T11:26:06.973Z,-15.63
2019-01-19T11:28:33.110Z,-15.58
2019-01-19T11:30:59.230Z,-15.53
2019-01-19T11:33:25.362Z,-15.50
2019-01-19T11:35:51.570Z,-15.42
2019-01-19T11:38:20.265Z,-15.34
2019-01-19T11:40:45.842Z,-15.20
2019-01-19T11:43:11.985Z,-15.10
2019-01-19T11:45:38.135Z,-15.01
2019-01-19T11:48:04.367Z,-14.90
2019-01-19T11:50:30.489Z,-14.78
2019-01-19T11:52:56.624Z,-14.78
2019-01-19T11:55:22.935Z,-14.79
2019-01-19T11:58:30.503Z,-14.77
2019-01-19T12:00:56.723Z,-14.75
2019-01-19T12:03:22.855Z,-14.57
2019-01-19T12:05:49.088Z,-14.51
2019-01-19T12:08:19.448Z,-14.49
2019-01-19T12:10:43.462Z,-14.41
2019-01-19T12:13:09.578Z,-14.36
2019-01-19T12:15:35.710Z,-14.28
2019-01-19T12:18:01.829Z,-14.23
2019-01-19T12:20:47.719Z,-14.17
2019-01-19T12:23:13.854Z,-14.09
2019-01-19T12:25:40.091Z,-13.94
2019-01-19T12:28:06.307Z,-13.84
2019-01-19T12:31:13.850Z,-13.80
2019-01-19T12:33:40.002Z,-13.75
2019-01-19T12:36:06.238Z,-13.65
2019-01-19T12:38:32.459Z,-13.61
2019-01-19T12:40:58.695Z,-13.56
2019-01-19T12:43:24.812Z,-13.54
2019-01-19T12:46:32.372Z,-13.54
2019-01-19T12:48:58.504Z,-13.51
2019-01-19T12:51:24.641Z,-13.42
2019-01-19T12:53:50.865Z,-13.37
2019-01-19T12:56:17.101Z,-13.36
2019-01-19T12:58:43.220Z,-13.32
2019-01-19T13:01:09.447Z,-13.31
2019-01-19T13:03:57.216Z,-13.20
2019-01-19T13:07:04.773Z,-13.07
2019-01-19T13:09:31.051Z,-13.02
2019-01-19T13:12:38.597Z,-12.88
2019-01-19T13:15:44.366Z,-12.73
2019-01-19T13:21:51.056Z,-12.49
2019-01-19T13:27:39.991Z,-12.31
2019-01-19T13:30:47.538Z,-12.25
2019-01-19T13:33:35.328Z,-12.15
2019-01-19T13:39:41.425Z,-11.94
2019-01-19T13:58:05.287Z,-11.24
2019-01-19T14:21:40.988Z,-9.75
2019-01-19T14:24:46.776Z,-9.70
2019-01-19T14:27:52.516Z,-9.67
2019-01-19T14:31:00.085Z,-9.64
2019-01-19T14:46:04.705Z,-9.26
2019-01-19T14:49:10.455Z,-9.25
2019-01-19T14:52:16.192Z,-9.24
2019-01-19T14:55:21.932Z,-9.24
2019-01-19T15:16:46.189Z,-9.24
2019-01-19T15:19:33.987Z,-9.24
2019-01-19T15:22:40.431Z,-9.26
2019-01-19T15:25:48.006Z,-9.26
2019-01-19T15:34:54.718Z,-9.17
2019-01-19T15:41:01.039Z,-9.21
2019-01-19T15:44:06.790Z,-9.23
2019-01-19T15:47:12.541Z,-9.27
2019-01-19T15:50:18.279Z,-9.30
2019-01-19T15:56:37.941Z,-9.30
2019-01-19T16:02:44.583Z,-9.35
2019-01-19T16:05:52.159Z,-9.38
2019-01-19T16:08:57.887Z,-9.40
2019-01-19T16:12:05.432Z,-9.44
2019-01-19T16:18:12.134Z,-9.52
2019-01-19T16:21:17.872Z,-9.60
2019-01-19T16:24:25.455Z,-9.61
2019-01-19T16:33:32.400Z,-9.72
2019-01-19T16:36:39.961Z,-9.74
2019-01-19T16:39:45.713Z,-9.78
2019-01-19T16:42:53.283Z,-9.82
2019-01-19T16:45:41.107Z,-9.87
2019-01-19T16:51:47.980Z,-9.99
2019-01-19T17:00:38.017Z,-10.10
2019-01-19T17:03:45.577Z,-10.16
2019-01-19T17:06:51.311Z,-10.24
2019-01-19T17:09:58.856Z,-10.27
2019-01-19T17:19:19.222Z,-10.44
2019-01-19T17:22:26.767Z,-10.47
2019-01-19T17:25:32.520Z,-10.46
2019-01-19T17:31:38.676Z,-10.59
2019-01-19T17:34:44.411Z,-10.60
2019-01-19T17:37:50.164Z,-10.65
2019-01-19T17:40:55.943Z,-10.61
2019-01-19T17:47:02.200Z,-10.55
2019-01-19T17:53:08.494Z,-10.61
2019-01-19T17:56:14.271Z,-10.63
2019-01-19T18:05:34.074Z,-10.60
2019-01-19T18:11:40.426Z,-10.66
2019-01-19T18:14:47.975Z,-10.71
2019-01-19T18:21:07.127Z,-10.82
2019-01-19T18:24:12.867Z,-10.88
2019-01-19T18:27:20.423Z,-10.95
2019-01-19T18:30:26.151Z,-11.04
2019-01-19T18:33:33.704Z,-11.10
2019-01-19T18:36:39.467Z,-11.14
2019-01-19T18:42:59.349Z,-11.19
2019-01-19T18:49:05.778Z,-11.23
2019-01-19T18:51:53.593Z,-11.25
2019-01-19T18:55:01.116Z,-11.27
2019-01-19T19:06:51.443Z,-11.42
2019-01-19T19:10:02.058Z,-11.43
2019-01-19T19:13:04.836Z,-11.45
2019-01-19T19:16:12.381Z,-11.50
2019-01-19T19:19:18.152Z,-11.53
2019-01-19T19:22:23.885Z,-11.64
2019-01-19T19:25:29.629Z,-11.71
2019-01-19T19:28:35.358Z,-11.79
2019-01-19T19:31:41.099Z,-11.85
2019-01-19T19:34:46.859Z,-11.92
2019-01-19T19:37:52.595Z,-11.96
2019-01-19T19:40:58.332Z,-12.02
2019-01-19T19:44:04.073Z,-12.05
2019-01-19T19:47:11.627Z,-12.05
2019-01-19T19:50:17.360Z,-12.08
2019-01-19T19:52:43.600Z,-12.13
2019-01-19T19:55:09.412Z,-12.21
2019-01-19T19:57:35.646Z,-12.34
2019-01-19T20:03:09.223Z,-12.50
2019-01-19T20:05:35.444Z,-12.59
2019-01-19T20:08:01.593Z,-12.71
2019-01-19T20:10:27.710Z,-12.77
2019-01-19T20:12:53.849Z,-12.86
2019-01-19T20:15:19.969Z,-12.93
2019-01-19T20:17:46.209Z,-13.06
2019-01-19T20:23:26.278Z,-13.32
2019-01-19T20:25:52.410Z,-13.60
2019-01-19T20:28:18.648Z,-13.78
2019-01-19T20:30:44.774Z,-13.90
2019-01-19T20:33:10.907Z,-14.03
2019-01-19T20:35:37.128Z,-14.12
2019-01-19T20:38:03.359Z,-14.23
2019-01-19T20:40:29.580Z,-14.33
2019-01-19T20:42:55.723Z,-14.45
2019-01-19T20:45:21.938Z,-14.51
2019-01-19T20:47:48.070Z,-14.58
2019-01-19T20:50:14.192Z,-14.62
2019-01-19T20:52:40.423Z,-14.68
2019-01-19T20:58:19.912Z,-14.85
2019-01-19T21:00:46.123Z,-15.13
2019-01-19T21:03:12.263Z,-15.23
2019-01-19T21:05:38.386Z,-15.30
2019-01-19T21:08:04.527Z,-15.34
2019-01-19T21:10:31.919Z,-15.41
2019-01-19T21:12:58.787Z,-15.44
2019-01-19T21:15:24.909Z,-15.48
2019-01-19T21:17:55.783Z,-15.56
2019-01-19T21:20:19.173Z,-15.61
2019-01-19T21:22:45.399Z,-15.72
2019-01-19T21:25:52.947Z,-15.86
2019-01-19T21:28:19.081Z,-15.96
2019-01-19T21:30:45.204Z,-16.08
2019-01-19T21:33:11.443Z,-16.23
2019-01-19T21:35:37.566Z,-16.32
2019-01-19T21:38:03.783Z,-16.41
2019-01-19T21:40:30.126Z,-16.45
2019-01-19T21:42:56.339Z,-16.50
2019-01-19T21:45:22.578Z,-16.64
2019-01-19T21:47:48.695Z,-16.75
2019-01-19T21:50:15.124Z,-16.84
2019-01-19T21:52:41.240Z,-16.88
2019-01-19T21:55:48.779Z,-16.93
2019-01-19T21:58:14.908Z,-16.97
2019-01-19T22:00:41.040Z,-17.05
2019-01-19T22:03:07.172Z,-17.23
2019-01-19T22:05:33.300Z,-17.20
2019-01-19T22:07:59.426Z,-17.30
2019-01-19T22:10:25.655Z,-17.33
2019-01-19T22:12:51.772Z,-17.35
2019-01-19T22:15:59.326Z,-17.46
2019-01-19T22:18:25.555Z,-17.51
2019-01-19T22:20:51.687Z,-17.58
2019-01-19T22:23:17.815Z,-17.70
2019-01-19T22:25:44.047Z,-17.72
2019-01-19T22:28:10.266Z,-17.78
2019-01-19T22:30:36.411Z,-17.83
2019-01-19T22:33:02.736Z,-17.90
2019-01-19T22:35:28.967Z,-17.94
2019-01-19T22:37:55.083Z,-18.00
2019-01-19T22:40:21.220Z,-18.04
2019-01-19T22:42:47.460Z,-18.10
2019-01-19T22:45:55.000Z,-18.12
2019-01-19T22:48:21.223Z,-18.10
2019-01-19T22:50:47.358Z,-18.10
2019-01-19T22:53:13.471Z,-18.14
2019-01-19T22:55:39.601Z,-18.16
2019-01-19T22:58:05.720Z,-18.22
2019-01-19T23:01:11.464Z,-18.29
2019-01-19T23:03:37.675Z,-18.32
2019-01-19T23:06:03.838Z,-18.37
2019-01-19T23:08:29.973Z,-18.42
2019-01-19T23:11:01.108Z,-18.47
2019-01-19T23:13:24.232Z,-18.49
2019-01-19T23:15:50.367Z,-18.47
2019-01-19T23:18:16.484Z,-18.41
2019-01-19T23:20:42.616Z,-18.38
2019-01-19T23:23:08.734Z,-18.37
2019-01-19T23:25:34.847Z,-18.41
2019-01-19T23:28:01.093Z,-18.42
2019-01-19T23:30:27.309Z,-18.43
2019-01-19T23:32:53.436Z,-18.49
2019-01-19T23:35:19.549Z,-18.55
2019-01-19T23:37:45.683Z,-18.59
2019-01-19T23:40:53.237Z,-18.63
2019-01-19T23:43:19.483Z,-18.66
2019-01-19T23:45:45.601Z,-18.80
2019-01-19T23:48:11.733Z,-18.67
2019-01-19T23:50:37.846Z,-18.70
2019-01-19T23:53:04.078Z,-18.71
2019-01-19T23:55:30.191Z,-18.75
2019-01-19T23:57:56.422Z,-18.83
